Time;durP1;ratioP1;P1;durP2;ratioP2;P2;SDS_P1;SDS_P2;PMS_P1;PMS_P2;Temp;Humidity;BMP_temperature;BMP_pressure;BME280_temperature;BME280_humidity;BME280_pressure;Samples;Min_cycle;Max_cycle;Signal;HPM_P1;HPM_P2
2022/10/27 00:00:18;;;;;;;;;;;;;;;21.25;54.75;101842.81;5144670;27;20432;-37
2022/10/27 00:02:44;;;;;;;;;;;;;;;21.25;54.85;101854.72;5127603;27;19931;-38
2022/10/27 00:05:09;;;;;;;;;;;;;;;21.26;54.87;101850.00;5128125;27;19927;-38
2022/10/27 00:07:36;;;;;;;;;;;;;;;21.25;54.72;101846.41;5142739;27;19923;-38
2022/10/27 00:10:02;;;;;;;;;;;;;;;21.25;54.74;101851.97;5143871;27;19975;-38
2022/10/27 00:12:28;;;;;;;;;;;;;;;21.25;54.79;101851.97;5145655;27;19939;-36
2022/10/27 00:14:54;;;;;;;;;;;;;;;21.25;54.92;101845.59;5140819;27;20007;-38
2022/10/27 00:17:19;;;;;;;;;;;;;;;21.26;54.87;101847.25;5140364;27;19927;-37
2022/10/27 00:19:45;;;;;;;;;;;;;;;21.25;54.78;101846.41;5140742;27;20283;-38
2022/10/27 00:22:10;;;;;;;;;;;;;;;21.24;54.90;101850.31;5147105;27;19922;-39
2022/10/27 00:24:36;;;;;;;;;;;;;;;21.25;54.86;101845.59;5147762;27;19931;-37
2022/10/27 00:27:01;;;;;;;;;;;;;;;21.24;54.90;101830.03;5146573;27;20334;-38
2022/10/27 00:29:27;;;;;;;;;;;;;;;21.25;54.87;101848.34;5141948;27;19934;-38
2022/10/27 00:31:52;;;;;;;;;;;;;;;21.24;54.89;101844.75;5147275;27;19930;-38
2022/10/27 00:34:18;;;;;;;;;;;;;;;21.25;54.71;101845.59;5147577;27;19926;-38
2022/10/27 00:36:44;;;;;;;;;;;;;;;21.24;54.84;101844.75;5140291;27;19927;-38
2022/10/27 00:39:09;;;;;;;;;;;;;;;21.25;54.94;101848.34;5147829;27;19931;-38
2022/10/27 00:41:36;;;;;;;;;;;;;;;21.24;54.82;101844.75;5142411;27;19931;-38
2022/10/27 00:44:22;;;;;;;;;;;;;;;21.24;54.75;101850.31;5144843;27;19976;-39
2022/10/27 00:46:47;;;;;;;;;;;;;;;21.24;54.90;101852.22;5131015;27;20009;-38
2022/10/27 00:49:14;;;;;;;;;;;;;;;21.24;54.70;101843.91;5131449;27;19945;-38
2022/10/27 00:51:59;;;;;;;;;;;;;;;21.24;54.80;101860.53;5143278;27;20440;-37
2022/10/27 00:54:26;;;;;;;;;;;;;;;21.24;54.82;101852.22;5134066;27;19966;-38
2022/10/27 00:56:51;;;;;;;;;;;;;;;21.24;54.75;101850.31;5146765;27;20309;-38
2022/10/27 00:59:17;;;;;;;;;;;;;;;21.23;54.73;101848.59;5143851;27;20131;-38
2022/10/27 01:01:43;;;;;;;;;;;;;;;21.25;54.87;101848.34;5146221;27;19923;-38
2022/10/27 01:04:08;;;;;;;;;;;;;;;21.24;54.83;101854.97;5146828;27;19923;-37
2022/10/27 01:06:34;;;;;;;;;;;;;;;21.23;54.85;101854.16;5144287;27;19923;-37
2022/10/27 01:09:00;;;;;;;;;;;;;;;21.23;54.72;101862.47;5125535;27;20007;-38
2022/10/27 01:11:25;;;;;;;;;;;;;;;21.24;54.83;101857.75;5145118;27;19929;-38
2022/10/27 01:13:51;;;;;;;;;;;;;;;21.23;54.73;101856.91;5141584;27;20429;-38
2022/10/27 01:18:57;;;;;;;;;;;;;;;21.23;54.84;101856.91;5158579;27;19933;-35
2022/10/27 01:21:41;;;;;;;;;;;;;;;21.23;54.80;101864.41;5136832;27;19977;-35
2022/10/27 01:24:21;;;;;;;;;;;;;;;21.22;54.72;101862.75;5135244;27;20010;-35
2022/10/27 01:26:48;;;;;;;;;;;;;;;21.23;54.74;101865.22;5136814;27;20020;-35
2022/10/27 01:29:33;;;;;;;;;;;;;;;21.23;54.83;101868.00;5117869;27;19958;-36
2022/10/27 01:32:10;;;;;;;;;;;;;;;21.22;54.83;101871.88;5118279;27;19971;-35
2022/10/27 01:34:37;;;;;;;;;;;;;;;21.23;54.87;101869.94;5138972;27;20007;-35
2022/10/27 01:37:09;;;;;;;;;;;;;;;21.23;54.79;101875.47;5141651;27;20019;-35
2022/10/27 01:39:36;;;;;;;;;;;;;;;21.22;54.73;101865.50;5137895;27;19966;-35
2022/10/27 01:42:04;;;;;;;;;;;;;;;21.22;54.91;101868.28;5142454;27;19985;-35
2022/10/27 01:44:32;;;;;;;;;;;;;;;21.23;54.82;101872.72;5139692;27;19969;-36
2022/10/27 01:46:58;;;;;;;;;;;;;;;21.22;54.73;101869.13;5140662;27;19967;-35
2022/10/27 01:49:23;;;;;;;;;;;;;;;21.22;54.66;101865.50;5141452;27;19965;-35
2022/10/27 01:51:49;;;;;;;;;;;;;;;21.22;54.80;101869.13;5134056;27;19948;-35
2022/10/27 01:54:15;;;;;;;;;;;;;;;21.22;54.93;101871.06;5138435;27;20358;-35
2022/10/27 01:59:23;;;;;;;;;;;;;;;21.22;54.74;101871.06;5166780;27;19934;-37
2022/10/27 02:02:08;;;;;;;;;;;;;;;21.21;54.82;101875.75;5144672;27;20002;-35
2022/10/27 02:04:38;;;;;;;;;;;;;;;21.21;54.59;101874.94;5133455;27;20017;-35
2022/10/27 02:07:13;;;;;;;;;;;;;;;21.22;54.80;101879.38;5146879;27;20400;-35
2022/10/27 02:09:48;;;;;;;;;;;;;;;21.22;54.80;101879.38;5147385;27;20430;-36
2022/10/27 02:12:16;;;;;;;;;;;;;;;21.21;54.81;101873.00;5142794;27;20026;-35
2022/10/27 02:14:42;;;;;;;;;;;;;;;21.22;54.80;101884.91;5146930;27;20021;-35
2022/10/27 02:17:07;;;;;;;;;;;;;;;21.21;54.85;101878.53;5144327;27;19931;-35
2022/10/27 02:19:34;;;;;;;;;;;;;;;21.21;54.83;101880.47;5143834;27;20042;-35
2022/10/27 02:22:00;;;;;;;;;;;;;;;21.21;54.91;101886.84;5142449;27;20014;-35
2022/10/27 02:24:25;;;;;;;;;;;;;;;21.21;54.83;101883.25;5143200;27;19963;-35
2022/10/27 02:26:54;;;;;;;;;;;;;;;21.22;54.67;101884.91;5138537;27;19927;-36
2022/10/27 02:29:39;;;;;;;;;;;;;;;21.21;55.02;101878.53;5140638;27;19985;-35
2022/10/27 02:32:06;;;;;;;;;;;;;;;21.22;54.81;101876.59;5127043;27;19924;-35
2022/10/27 02:34:32;;;;;;;;;;;;;;;21.20;54.74;101868.56;5125466;27;20466;-35
2022/10/27 02:36:57;;;;;;;;;;;;;;;21.21;54.75;101881.31;5137766;27;19936;-36
2022/10/27 02:39:23;;;;;;;;;;;;;;;21.21;54.92;101877.72;5141016;27;19927;-35
2022/10/27 02:41:48;;;;;;;;;;;;;;;21.20;54.60;101867.72;5142454;27;19992;-35
2022/10/27 02:44:14;;;;;;;;;;;;;;;21.20;54.78;101873.25;5143332;27;19923;-37
2022/10/27 02:46:39;;;;;;;;;;;;;;;21.21;54.67;101869.41;5140379;27;19938;-37
2022/10/27 02:49:09;;;;;;;;;;;;;;;21.19;54.85;101869.66;5143213;27;19967;-38
2022/10/27 02:51:35;;;;;;;;;;;;;;;21.21;54.83;101870.22;5142905;27;19927;-38
2022/10/27 02:54:01;;;;;;;;;;;;;;;21.21;54.83;101872.16;5144836;27;19924;-38
2022/10/27 02:56:26;;;;;;;;;;;;;;;21.19;54.84;101866.88;5142299;27;19928;-38
2022/10/27 02:58:52;;;;;;;;;;;;;;;21.19;54.76;101864.09;5141901;27;19927;-38
2022/10/27 03:01:18;;;;;;;;;;;;;;;21.19;55.02;101866.88;5123030;27;19973;-38
2022/10/27 03:03:43;;;;;;;;;;;;;;;21.21;54.82;101872.16;5141676;27;19924;-38
2022/10/27 03:06:09;;;;;;;;;;;;;;;21.20;54.74;101856.63;5142299;27;19924;-38
2022/10/27 03:08:35;;;;;;;;;;;;;;;21.20;54.77;101860.25;5142205;27;19931;-38
2022/10/27 03:11:00;;;;;;;;;;;;;;;21.19;54.72;101861.34;5128076;28;20374;-38
2022/10/27 03:13:26;;;;;;;;;;;;;;;21.20;54.85;101856.63;5129883;28;19924;-38
2022/10/27 03:15:51;;;;;;;;;;;;;;;21.20;54.78;101851.09;5126231;27;19931;-37
2022/10/27 03:18:17;;;;;;;;;;;;;;;21.21;54.84;101850.00;5127670;28;19924;-37
2022/10/27 03:20:44;;;;;;;;;;;;;;;21.20;54.75;101840.00;5126046;28;20326;-38
2022/10/27 03:23:10;;;;;;;;;;;;;;;21.19;54.80;101844.72;5129055;28;19970;-38
2022/10/27 03:25:36;;;;;;;;;;;;;;;21.21;54.90;101847.22;5122227;28;19950;-38
2022/10/27 03:28:01;;;;;;;;;;;;;;;21.21;54.76;101850.00;5129342;28;20014;-38
2022/10/27 03:30:27;;;;;;;;;;;;;;;21.20;54.78;101846.41;5127622;28;19934;-38
2022/10/27 03:32:52;;;;;;;;;;;;;;;21.19;54.74;101844.72;5126002;28;19931;-38
2022/10/27 03:35:19;;;;;;;;;;;;;;;21.19;54.71;101847.50;5127691;28;19924;-38
2022/10/27 03:37:45;;;;;;;;;;;;;;;21.19;54.81;101847.50;5110980;28;19930;-38
2022/10/27 03:40:10;;;;;;;;;;;;;;;21.21;54.79;101847.22;5110129;28;19928;-37
2022/10/27 03:42:39;;;;;;;;;;;;;;;21.19;54.77;101844.72;5106733;28;19924;-37
2022/10/27 03:45:04;;;;;;;;;;;;;;;21.18;54.76;101840.28;5108692;28;20014;-38
2022/10/27 03:47:30;;;;;;;;;;;;;;;21.19;54.83;101843.88;5129565;28;19968;-37
2022/10/27 03:49:55;;;;;;;;;;;;;;;21.21;54.74;101847.22;5128617;28;19923;-38
2022/10/27 03:52:21;;;;;;;;;;;;;;;21.19;54.95;101841.94;5128222;28;19923;-38
2022/10/27 03:54:47;;;;;;;;;;;;;;;21.19;54.84;101841.13;5125787;28;20003;-38
2022/10/27 03:57:12;;;;;;;;;;;;;;;21.19;54.81;101843.88;5129218;28;20410;-38
2022/10/27 03:59:38;;;;;;;;;;;;;;;21.18;54.81;101848.59;5128187;28;19923;-38
2022/10/27 04:02:04;;;;;;;;;;;;;;;21.19;54.76;101836.41;5106988;28;19923;-38
2022/10/27 04:04:32;;;;;;;;;;;;;;;21.19;54.68;101841.13;5109385;28;19979;-38
2022/10/27 04:06:58;;;;;;;;;;;;;;;21.19;54.83;101838.34;5128093;28;19924;-37
2022/10/27 04:09:23;;;;;;;;;;;;;;;21.19;54.85;101846.66;5129112;28;20391;-37
2022/10/27 04:11:49;;;;;;;;;;;;;;;21.19;54.75;101841.13;5127275;28;19923;-38
2022/10/27 04:14:14;;;;;;;;;;;;;;;21.19;54.76;101843.88;5128942;27;19927;-38
2022/10/27 04:16:40;;;;;;;;;;;;;;;21.19;54.93;101849.44;5126289;28;19976;-38
2022/10/27 04:19:05;;;;;;;;;;;;;;;21.17;54.74;101844.16;5129441;28;19946;-38
2022/10/27 04:21:31;;;;;;;;;;;;;;;21.18;54.75;101845.81;5126000;27;19923;-37
2022/10/27 04:23:57;;;;;;;;;;;;;;;21.19;54.77;101847.50;5129149;28;19932;-38
2022/10/27 04:26:22;;;;;;;;;;;;;;;21.19;54.88;101839.19;5126770;27;19931;-38
2022/10/27 04:28:48;;;;;;;;;;;;;;;21.18;54.91;101834.75;5128524;28;19923;-38
2022/10/27 04:31:13;;;;;;;;;;;;;;;21.19;54.77;101838.34;5125164;28;19931;-38
2022/10/27 04:33:39;;;;;;;;;;;;;;;21.18;54.70;101834.75;5125229;28;19931;-37
2022/10/27 04:36:05;;;;;;;;;;;;;;;21.18;54.86;101828.38;5123487;28;19969;-38
2022/10/27 04:38:31;;;;;;;;;;;;;;;21.18;54.86;101833.91;5128659;28;20008;-37
2022/10/27 04:41:01;;;;;;;;;;;;;;;21.18;54.92;101837.53;5128130;28;19923;-38
2022/10/27 04:43:27;;;;;;;;;;;;;;;21.18;54.80;101833.91;5127187;28;19932;-38
2022/10/27 04:45:53;;;;;;;;;;;;;;;21.18;54.81;101833.91;5124349;27;19949;-41
2022/10/27 04:48:18;;;;;;;;;;;;;;;21.18;54.77;101839.47;5109865;28;19955;-38
2022/10/27 04:50:44;;;;;;;;;;;;;;;21.18;54.78;101839.47;5127773;28;19924;-39
2022/10/27 04:53:09;;;;;;;;;;;;;;;21.18;54.72;101834.75;5123800;28;19953;-37
2022/10/27 04:55:35;;;;;;;;;;;;;;;21.18;54.79;101828.38;5123851;28;20375;-38
2022/10/27 04:58:00;;;;;;;;;;;;;;;21.18;54.73;101839.47;5128286;28;21123;-38
2022/10/27 05:00:33;;;;;;;;;;;;;;;21.17;54.77;101829.50;5126142;28;19931;-37
2022/10/27 05:02:59;;;;;;;;;;;;;;;21.17;54.77;101833.09;5126831;28;19973;-38
2022/10/27 05:05:26;;;;;;;;;;;;;;;21.18;54.86;101828.38;5127616;28;19928;-37
2022/10/27 05:07:52;;;;;;;;;;;;;;;21.17;54.86;101835.03;5109716;28;20158;-38
2022/10/27 05:10:18;;;;;;;;;;;;;;;21.16;54.83;101834.22;5123927;28;19959;-38
2022/10/27 05:12:43;;;;;;;;;;;;;;;21.17;54.80;101835.03;5107131;28;19943;-38
2022/10/27 05:15:09;;;;;;;;;;;;;;;21.17;54.78;101835.03;5124828;27;19949;-37
2022/10/27 05:17:39;;;;;;;;;;;;;;;21.10;56.05;101838.03;5109713;28;19950;-44
2022/10/27 05:20:05;;;;;;;;;;;;;;;21.08;55.97;101843.03;5128242;28;20287;-38
2022/10/27 05:22:31;;;;;;;;;;;;;;;21.15;55.41;101845.53;5125082;28;19923;-38
2022/10/27 05:24:56;;;;;;;;;;;;;;;21.16;55.29;101836.16;5104554;28;19935;-38
2022/10/27 05:27:22;;;;;;;;;;;;;;;21.16;55.09;101844.44;5126566;28;19927;-38
2022/10/27 05:29:47;;;;;;;;;;;;;;;21.17;55.16;101843.34;5123043;28;19982;-38
2022/10/27 05:32:13;;;;;;;;;;;;;;;21.17;55.12;101846.94;5124107;27;19927;-38
2022/10/27 05:34:38;;;;;;;;;;;;;;;21.16;55.20;101834.22;5122529;27;19924;-38
2022/10/27 05:37:04;;;;;;;;;;;;;;;21.17;55.11;101837.81;5125520;28;20355;-38
2022/10/27 05:39:30;;;;;;;;;;;;;;;21.16;54.96;101845.28;5125634;28;19923;-38
2022/10/27 05:41:55;;;;;;;;;;;;;;;21.17;55.05;101837.81;5124408;28;19924;-38
2022/10/27 05:44:21;;;;;;;;;;;;;;;21.17;54.99;101840.56;5125121;28;20012;-38
2022/10/27 05:46:46;;;;;;;;;;;;;;;21.17;54.86;101840.56;5121233;28;19943;-38
2022/10/27 05:49:12;;;;;;;;;;;;;;;21.16;54.92;101836.97;5122856;28;19984;-37
2022/10/27 05:51:37;;;;;;;;;;;;;;;21.17;55.02;101844.16;5124686;27;19931;-38
2022/10/27 05:54:03;;;;;;;;;;;;;;;21.16;54.88;101841.69;5120918;28;19932;-38
2022/10/27 05:56:28;;;;;;;;;;;;;;;21.17;54.90;101846.13;5119820;28;19992;-38
2022/10/27 05:58:54;;;;;;;;;;;;;;;21.16;54.94;101842.50;5116133;28;19969;-38
2022/10/27 06:01:20;;;;;;;;;;;;;;;21.17;54.86;101849.72;5099727;28;20263;-39
2022/10/27 06:03:45;;;;;;;;;;;;;;;21.14;55.40;101844.72;5097859;28;19928;-39
2022/10/27 06:06:11;;;;;;;;;;;;;;;20.94;55.06;101852.94;5092144;27;19997;-38
2022/10/27 06:08:36;;;;;;;;;;;;;;;20.92;55.08;101855.97;5115404;27;19953;-39
2022/10/27 06:11:02;;;;;;;;;;;;;;;20.94;55.34;101858.47;5112731;28;19938;-38
2022/10/27 06:13:28;;;;;;;;;;;;;;;21.12;55.08;101854.41;5121029;27;19932;-38
2022/10/27 06:15:54;;;;;;;;;;;;;;;21.18;54.97;101862.44;5115329;28;20422;-38
2022/10/27 06:18:20;;;;;;;;;;;;;;;21.21;55.09;101859.16;5096824;28;19935;-37
2022/10/27 06:20:45;;;;;;;;;;;;;;;21.21;55.07;101853.59;5118607;28;19930;-38
2022/10/27 06:23:11;;;;;;;;;;;;;;;21.22;55.04;101865.50;5121635;28;20301;-39
2022/10/27 06:25:36;;;;;;;;;;;;;;;21.23;54.97;101861.63;5097329;28;19928;-38
2022/10/27 06:28:02;;;;;;;;;;;;;;;21.23;54.99;101864.41;5102227;28;19923;-38
2022/10/27 06:30:27;;;;;;;;;;;;;;;21.24;54.82;101866.91;5121062;27;19927;-38
2022/10/27 06:32:53;;;;;;;;;;;;;;;21.22;54.96;101866.34;5118141;28;19932;-38
2022/10/27 06:35:19;;;;;;;;;;;;;;;21.24;54.70;101874.38;5120875;28;19932;-38
2022/10/27 06:37:45;;;;;;;;;;;;;;;21.23;55.05;101868.00;5120056;28;19923;-38
2022/10/27 06:40:12;;;;;;;;;;;;;;;21.25;54.85;101867.75;5117561;28;20030;-38
2022/10/27 06:42:38;;;;;;;;;;;;;;;21.24;54.89;101872.47;5100286;28;19955;-38
2022/10/27 06:45:24;;;;;;;;;;;;;;;21.26;54.55;101872.19;5105129;28;19938;-38
2022/10/27 06:47:57;;;;;;;;;;;;;;;21.25;54.66;101867.75;5118067;28;19924;-38
2022/10/27 06:50:22;;;;;;;;;;;;;;;21.27;54.73;101865.53;5098507;28;19984;-38
2022/10/27 06:52:50;;;;;;;;;;;;;;;21.27;54.60;101871.91;5120483;28;19937;-38
2022/10/27 06:55:16;;;;;;;;;;;;;;;21.26;54.71;101866.63;5115331;28;19942;-38
2022/10/27 06:57:41;;;;;;;;;;;;;;;21.27;54.67;101863.59;5095198;28;19932;-38
2022/10/27 07:00:07;;;;;;;;;;;;;;;21.28;54.61;101865.25;5092043;28;19996;-38
2022/10/27 07:02:33;;;;;;;;;;;;;;;21.29;54.70;101871.63;5082694;27;20375;-38
2022/10/27 07:04:58;;;;;;;;;;;;;;;21.30;54.48;101868.59;5102497;27;20371;-38
2022/10/27 07:07:24;;;;;;;;;;;;;;;21.30;54.63;101854.75;5099803;27;19931;-38
2022/10/27 07:09:49;;;;;;;;;;;;;;;21.30;54.48;101860.28;5099415;27;20321;-38
2022/10/27 07:12:15;;;;;;;;;;;;;;;21.08;54.21;101856.88;5108207;28;19927;-38
2022/10/27 07:14:41;;;;;;;;;;;;;;;21.22;54.26;101857.22;5107173;27;19938;-38
2022/10/27 07:17:06;;;;;;;;;;;;;;;21.26;54.02;101853.63;5112203;28;20444;-38
2022/10/27 07:19:32;;;;;;;;;;;;;;;21.27;54.12;101852.50;5111548;27;19934;-38
2022/10/27 07:21:57;;;;;;;;;;;;;;;21.29;54.16;101853.06;5119046;28;19923;-38
2022/10/27 07:24:23;;;;;;;;;;;;;;;21.29;54.38;101855.03;5121402;27;19950;-38
2022/10/27 07:26:48;;;;;;;;;;;;;;;21.30;54.33;101863.03;5120248;27;19931;-38
2022/10/27 07:29:14;;;;;;;;;;;;;;;21.15;53.00;101854.66;5120951;27;19954;-37
2022/10/27 07:31:42;;;;;;;;;;;;;;;21.25;53.78;101851.97;5117187;28;19936;-39
2022/10/27 07:34:08;;;;;;;;;;;;;;;21.31;53.83;101841.72;5120305;27;20088;-38
2022/10/27 07:36:34;;;;;;;;;;;;;;;21.30;53.95;101832.56;5116644;27;20572;-38
2022/10/27 07:38:59;;;;;;;;;;;;;;;21.33;54.04;101838.69;5122621;28;19954;-38
2022/10/27 07:41:25;;;;;;;;;;;;;;;21.32;53.85;101840.63;5118043;28;19950;-39
2022/10/27 07:43:50;;;;;;;;;;;;;;;21.32;54.00;101839.81;5122667;28;19959;-38
2022/10/27 07:46:16;;;;;;;;;;;;;;;21.31;53.99;101833.41;5119247;28;20287;-39
2022/10/27 07:48:41;;;;;;;;;;;;;;;21.32;53.99;101837.03;5125185;28;19975;-38
2022/10/27 07:51:07;;;;;;;;;;;;;;;21.33;54.07;101849.78;5115925;28;19931;-38
2022/10/27 07:53:33;;;;;;;;;;;;;;;21.33;53.77;101845.09;5118057;28;20309;-38
2022/10/27 07:55:58;;;;;;;;;;;;;;;21.34;53.93;101845.91;5115365;27;19924;-38
2022/10/27 07:58:24;;;;;;;;;;;;;;;21.34;54.03;101848.69;5118279;27;19970;-38
2022/10/27 08:00:49;;;;;;;;;;;;;;;21.35;54.01;101844.81;5094858;28;19987;-38
2022/10/27 08:03:16;;;;;;;;;;;;;;;21.35;54.16;101831.78;5106389;27;20302;-39
2022/10/27 08:05:42;;;;;;;;;;;;;;;21.36;54.14;101833.44;5115598;27;20018;-38
2022/10/27 08:08:07;;;;;;;;;;;;;;;21.36;54.23;101832.59;5113157;27;19927;-38
2022/10/27 08:10:34;;;;;;;;;;;;;;;21.36;54.13;101832.59;5105176;27;20438;-38
2022/10/27 08:12:59;;;;;;;;;;;;;;;21.39;54.34;101845.94;5095607;28;20014;-38
2022/10/27 08:15:25;;;;;;;;;;;;;;;21.39;54.34;101840.38;5114250;27;19927;-38
2022/10/27 08:17:51;;;;;;;;;;;;;;;21.37;54.26;101837.03;5123458;28;19935;-38
2022/10/27 08:20:17;;;;;;;;;;;;;;;21.38;54.36;101838.72;5119343;28;20286;-38
2022/10/27 08:22:43;;;;;;;;;;;;;;;21.40;54.52;101836.50;5116751;28;20347;-38
2022/10/27 08:25:08;;;;;;;;;;;;;;;21.40;54.27;101836.50;5117622;27;19923;-38
2022/10/27 08:27:35;;;;;;;;;;;;;;;21.39;54.19;101841.22;5118788;28;19934;-40
2022/10/27 08:30:01;;;;;;;;;;;;;;;21.39;54.15;101843.16;5111033;28;19924;-38
2022/10/27 08:32:26;;;;;;;;;;;;;;;21.39;54.39;101837.63;5108458;28;19976;-38
2022/10/27 08:34:52;;;;;;;;;;;;;;;21.40;54.43;101844.81;5086509;28;20314;-38
2022/10/27 08:37:18;;;;;;;;;;;;;;;21.33;54.80;101836.78;5100917;27;19931;-38
2022/10/27 08:39:43;;;;;;;;;;;;;;;21.40;54.42;101842.88;5107877;28;20099;-38
2022/10/27 08:42:27;;;;;;;;;;;;;;;21.41;54.64;101840.94;5109971;28;19931;-38
2022/10/27 08:44:56;;;;;;;;;;;;;;;21.41;54.64;101833.44;5109512;28;19959;-38
2022/10/27 08:47:22;;;;;;;;;;;;;;;21.27;54.94;101835.06;5113099;27;20075;-38
2022/10/27 08:49:50;;;;;;;;;;;;;;;21.34;54.66;101829.28;5092016;28;20026;-38
2022/10/27 08:52:20;;;;;;;;;;;;;;;21.40;54.42;101830.97;5106730;27;20022;-38
2022/10/27 08:54:48;;;;;;;;;;;;;;;21.40;54.52;101829.00;5121105;27;20006;-39
2022/10/27 08:57:18;;;;;;;;;;;;;;;21.41;54.40;101830.66;5119530;28;20011;-38
2022/10/27 08:59:43;;;;;;;;;;;;;;;21.43;54.36;101825.69;5117749;27;20389;-38
2022/10/27 09:02:30;;;;;;;;;;;;;;;21.42;54.37;101826.00;5109903;27;19935;-40
2022/10/27 09:05:05;;;;;;;;;;;;;;;21.42;54.42;101826.00;5098635;28;19938;-38
2022/10/27 09:07:35;;;;;;;;;;;;;;;21.42;54.57;101817.69;5095691;28;20027;-38
2022/10/27 09:10:02;;;;;;;;;;;;;;;21.42;54.47;101817.69;5112316;27;20233;-38
2022/10/27 09:12:47;;;;;;;;;;;;;;;21.44;54.44;101827.34;5098077;28;19923;-38
2022/10/27 09:15:18;;;;;;;;;;;;;;;21.44;54.45;101816.28;5101516;28;20078;-38
2022/10/27 09:17:45;;;;;;;;;;;;;;;21.46;54.51;101810.44;5117052;28;20182;-38
2022/10/27 09:20:16;;;;;;;;;;;;;;;21.43;54.44;101806.31;5120795;28;20026;-38
2022/10/27 09:22:41;;;;;;;;;;;;;;;21.44;54.42;101799.66;5103162;28;20045;-38
2022/10/27 09:25:22;;;;;;;;;;;;;;;21.44;54.22;101805.19;5102581;28;20388;-38
2022/10/27 09:27:50;;;;;;;;;;;;;;;21.53;54.48;101798.00;5119627;28;20433;-38
2022/10/27 09:30:16;;;;;;;;;;;;;;;21.54;54.21;101790.50;5101272;28;20374;-38
2022/10/27 09:32:42;;;;;;;;;;;;;;;21.54;53.89;101787.72;5115573;27;19928;-38
2022/10/27 09:35:09;;;;;;;;;;;;;;;21.45;53.67;101790.22;5108754;28;20022;-38
2022/10/27 09:37:39;;;;;;;;;;;;;;;21.48;53.85;101786.06;5086885;28;20054;-38
2022/10/27 09:40:16;;;;;;;;;;;;;;;21.50;53.84;101784.72;5106817;27;20580;-38
2022/10/27 09:42:41;;;;;;;;;;;;;;;21.49;54.25;101787.72;5100493;27;19997;-38
2022/10/27 09:45:12;;;;;;;;;;;;;;;21.51;54.16;101780.00;5108589;28;19985;-38
2022/10/27 09:47:38;;;;;;;;;;;;;;;21.50;54.39;101778.31;5105902;28;20022;-38
2022/10/27 09:50:05;;;;;;;;;;;;;;;21.50;54.09;101778.31;5089560;28;20038;-38
2022/10/27 09:52:33;;;;;;;;;;;;;;;21.51;54.00;101774.44;5113754;28;20018;-39
2022/10/27 09:54:58;;;;;;;;;;;;;;;21.50;54.18;101762.53;5114466;27;20018;-38
2022/10/27 09:57:26;;;;;;;;;;;;;;;21.52;54.12;101767.78;5115506;27;19939;-38
2022/10/27 10:00:00;;;;;;;;;;;;;;;21.51;53.97;101753.09;5100154;28;20118;-38
2022/10/27 10:02:27;;;;;;;;;;;;;;;21.52;54.23;101767.78;5108993;28;20016;-38
2022/10/27 10:04:53;;;;;;;;;;;;;;;21.51;54.17;101761.41;5092051;28;19991;-38
2022/10/27 10:07:39;;;;;;;;;;;;;;;21.51;53.93;101761.41;5107828;28;20609;-39
2022/10/27 10:10:06;;;;;;;;;;;;;;;21.49;54.01;101755.31;5098065;27;20026;-37
2022/10/27 10:12:32;;;;;;;;;;;;;;;21.50;53.89;101754.22;5108112;27;19958;-38
2022/10/27 10:15:14;;;;;;;;;;;;;;;21.50;53.96;101751.44;5094898;28;20430;-39
2022/10/27 10:17:40;;;;;;;;;;;;;;;21.51;54.10;101739.25;5118163;28;19962;-38
2022/10/27 10:20:07;;;;;;;;;;;;;;;21.52;53.99;101745.63;5093328;28;20030;-38
2022/10/27 10:22:33;;;;;;;;;;;;;;;21.51;54.06;101743.97;5112955;27;20086;-38
2022/10/27 10:25:00;;;;;;;;;;;;;;;21.52;54.02;101738.13;5117750;27;19985;-38
2022/10/27 10:27:27;;;;;;;;;;;;;;;21.51;54.00;101741.19;5114893;28;20442;-39
2022/10/27 10:29:53;;;;;;;;;;;;;;;21.49;54.08;101743.38;5121060;27;19960;-38
2022/10/27 10:32:21;;;;;;;;;;;;;;;21.53;53.89;101731.47;5115653;28;19935;-38
2022/10/27 10:34:47;;;;;;;;;;;;;;;21.53;53.95;101739.78;5094949;27;20079;-38
2022/10/27 10:37:33;;;;;;;;;;;;;;;21.53;53.97;101748.09;5111732;28;19935;-38
2022/10/27 10:42:52;;;;;;;;;;;;;;;21.56;53.98;101740.34;5143854;27;19941;-36
2022/10/27 10:45:19;;;;;;;;;;;;;;;21.48;54.03;101737.03;5105483;27;20101;-35
2022/10/27 10:47:46;;;;;;;;;;;;;;;21.53;54.05;101728.69;5111995;27;19931;-38
2022/10/27 10:50:12;;;;;;;;;;;;;;;21.56;54.12;101729.28;5121985;27;20013;-38
2022/10/27 10:52:38;;;;;;;;;;;;;;;21.54;54.16;101716.53;5127678;27;20298;-38
2022/10/27 10:55:07;;;;;;;;;;;;;;;21.57;54.24;101708.75;5139459;27;19931;-38
2022/10/27 10:57:34;;;;;;;;;;;;;;;21.54;54.35;101711.00;5136357;27;19970;-38
2022/10/27 11:00:00;;;;;;;;;;;;;;;21.56;54.29;101719.00;5130192;27;19963;-38
2022/10/27 11:02:29;;;;;;;;;;;;;;;21.56;54.31;101719.00;5134100;27;19931;-38
2022/10/27 11:04:56;;;;;;;;;;;;;;;21.57;54.18;101703.22;5123834;27;20027;-38
2022/10/27 11:07:30;;;;;;;;;;;;;;;21.58;54.13;101699.31;5126896;27;19973;-38
2022/10/27 11:10:14;;;;;;;;;;;;;;;21.57;54.18;101704.03;5132191;27;20698;-38
2022/10/27 11:12:42;;;;;;;;;;;;;;;21.58;54.06;101705.69;5131849;27;20027;-38
2022/10/27 11:15:12;;;;;;;;;;;;;;;21.58;54.08;101704.88;5128229;27;20785;-38
2022/10/27 11:17:38;;;;;;;;;;;;;;;21.57;54.09;101706.81;5132104;27;20064;-38
2022/10/27 11:20:04;;;;;;;;;;;;;;;21.58;54.03;101702.09;5133191;27;20302;-38
2022/10/27 11:22:29;;;;;;;;;;;;;;;21.59;54.12;101699.06;5112842;27;19930;-38
2022/10/27 11:25:03;;;;;;;;;;;;;;;21.58;54.19;101689.06;5130399;27;19927;-38
2022/10/27 11:27:30;;;;;;;;;;;;;;;21.59;54.25;101685.22;5127023;27;19977;-38
2022/10/27 11:30:03;;;;;;;;;;;;;;;21.63;54.25;101682.69;5122553;27;20925;-40
2022/10/27 11:32:39;;;;;;;;;;;;;;;21.63;54.25;101685.44;5101140;27;19931;-38
2022/10/27 11:35:10;;;;;;;;;;;;;;;21.61;54.25;101682.97;5116235;27;20034;-38
2022/10/27 11:37:40;;;;;;;;;;;;;;;21.44;54.86;101687.97;5124194;27;20525;-45
2022/10/27 11:40:08;;;;;;;;;;;;;;;21.22;56.01;101675.19;5123006;27;20427;-38
2022/10/27 11:42:36;;;;;;;;;;;;;;;21.43;55.22;101664.97;5112460;27;20654;-38
2022/10/27 11:45:19;;;;;;;;;;;;;;;21.51;54.79;101661.66;5135377;27;20417;-38
2022/10/27 11:48:01;;;;;;;;;;;;;;;21.54;54.78;101654.69;5124668;27;20046;-38
2022/10/27 11:50:31;;;;;;;;;;;;;;;21.58;54.68;101655.81;5126631;27;20018;-38
2022/10/27 11:52:56;;;;;;;;;;;;;;;21.57;54.58;101651.38;5117103;27;20022;-38
2022/10/27 11:55:23;;;;;;;;;;;;;;;21.60;54.65;101650.81;5105910;27;19928;-38
2022/10/27 11:57:50;;;;;;;;;;;;;;;21.60;54.60;101644.47;5095133;27;20448;-39
2022/10/27 12:00:24;;;;;;;;;;;;;;;21.60;54.65;101642.50;5104231;27;20038;-39
2022/10/27 12:02:56;;;;;;;;;;;;;;;21.59;54.56;101648.31;5105024;27;20014;-38
2022/10/27 12:05:30;;;;;;;;;;;;;;;21.60;54.67;101633.38;5114638;27;19955;-38
2022/10/27 12:08:16;;;;;;;;;;;;;;;21.60;54.74;101625.06;5115004;27;19963;-39
2022/10/27 12:10:45;;;;;;;;;;;;;;;21.62;54.66;101631.13;5088678;28;19939;-38
2022/10/27 12:13:13;;;;;;;;;;;;;;;21.61;54.57;101627.53;5101859;27;19939;-38
2022/10/27 12:15:58;;;;;;;;;;;;;;;21.60;54.48;101631.44;5113017;27;20500;-38
2022/10/27 12:18:43;;;;;;;;;;;;;;;21.62;54.67;101631.97;5104249;27;19954;-38
2022/10/27 12:21:14;;;;;;;;;;;;;;;21.62;54.49;101637.50;5090341;27;20428;-39
2022/10/27 12:23:42;;;;;;;;;;;;;;;21.62;54.41;101645.81;5106392;27;20011;-38
2022/10/27 12:26:10;;;;;;;;;;;;;;;21.62;54.47;101631.97;5104664;27;20010;-38
2022/10/27 12:28:36;;;;;;;;;;;;;;;21.63;54.36;101630.88;5101797;27;20026;-38
2022/10/27 12:31:02;;;;;;;;;;;;;;;21.63;54.52;101638.34;5098580;27;19934;-37
2022/10/27 12:33:33;;;;;;;;;;;;;;;21.64;54.43;101634.47;5109500;27;20328;-36
2022/10/27 12:36:18;;;;;;;;;;;;;;;21.64;54.42;101640.00;5091127;28;20280;-38
2022/10/27 12:38:48;;;;;;;;;;;;;;;21.63;54.55;101633.66;5102030;28;19931;-38
2022/10/27 12:41:17;;;;;;;;;;;;;;;21.64;54.64;101628.94;5120679;28;20042;-38
2022/10/27 12:43:47;;;;;;;;;;;;;;;21.63;54.65;101630.88;5100013;28;20528;-38
2022/10/27 12:46:32;;;;;;;;;;;;;;;21.63;54.45;101624.47;5117066;28;20018;-41